sensor_id;sensor_type;location;lat;lon;timestamp;P1;durP1;ratioP1;P2;durP2;ratioP2
74620;SDS011;64861;47.546;19.254;2023-03-14T00:01:22;4.85;;;2.05;;
74620;SDS011;64861;47.546;19.254;2023-03-14T00:03:48;6.63;;;2.30;;
74620;SDS011;64861;47.546;19.254;2023-03-14T00:06:15;5.30;;;2.25;;
74620;SDS011;64861;47.546;19.254;2023-03-14T00:08:42;5.20;;;2.22;;
74620;SDS011;64861;47.546;19.254;2023-03-14T00:11:10;6.05;;;2.10;;
74620;SDS011;64861;47.546;19.254;2023-03-14T00:13:38;5.47;;;1.95;;
74620;SDS011;64861;47.546;19.254;2023-03-14T00:16:04;5.47;;;1.80;;
74620;SDS011;64861;47.546;19.254;2023-03-14T00:18:32;5.72;;;2.10;;
74620;SDS011;64861;47.546;19.254;2023-03-14T00:21:01;5.07;;;2.25;;
74620;SDS011;64861;47.546;19.254;2023-03-14T00:23:28;4.32;;;1.90;;
74620;SDS011;64861;47.546;19.254;2023-03-14T00:26:02;4.45;;;2.00;;
74620;SDS011;64861;47.546;19.254;2023-03-14T00:28:33;5.03;;;2.00;;
74620;SDS011;64861;47.546;19.254;2023-03-14T00:30:58;5.47;;;2.13;;
74620;SDS011;64861;47.546;19.254;2023-03-14T00:33:24;6.22;;;1.98;;
74620;SDS011;64861;47.546;19.254;2023-03-14T00:35:56;5.22;;;2.20;;
74620;SDS011;64861;47.546;19.254;2023-03-14T00:38:23;4.38;;;2.10;;
74620;SDS011;64861;47.546;19.254;2023-03-14T00:40:50;7.05;;;2.30;;
74620;SDS011;64861;47.546;19.254;2023-03-14T00:43:16;5.50;;;2.17;;
74620;SDS011;64861;47.546;19.254;2023-03-14T00:45:42;4.38;;;1.83;;
74620;SDS011;64861;47.546;19.254;2023-03-14T00:48:08;5.18;;;2.10;;
74620;SDS011;64861;47.546;19.254;2023-03-14T00:50:33;4.32;;;2.10;;
74620;SDS011;64861;47.546;19.254;2023-03-14T00:52:59;4.18;;;1.92;;
74620;SDS011;64861;47.546;19.254;2023-03-14T00:55:24;5.40;;;2.17;;
74620;SDS011;64861;47.546;19.254;2023-03-14T00:57:50;4.40;;;1.92;;
74620;SDS011;64861;47.546;19.254;2023-03-14T01:00:15;5.13;;;2.10;;
74620;SDS011;64861;47.546;19.254;2023-03-14T01:02:41;5.00;;;2.13;;
74620;SDS011;64861;47.546;19.254;2023-03-14T01:05:07;6.28;;;2.30;;
74620;SDS011;64861;47.546;19.254;2023-03-14T01:07:35;5.30;;;2.10;;
74620;SDS011;64861;47.546;19.254;2023-03-14T01:10:01;5.88;;;1.80;;
74620;SDS011;64861;47.546;19.254;2023-03-14T01:12:27;5.05;;;2.03;;
74620;SDS011;64861;47.546;19.254;2023-03-14T01:14:52;4.72;;;1.90;;
74620;SDS011;64861;47.546;19.254;2023-03-14T01:17:18;4.53;;;2.08;;
74620;SDS011;64861;47.546;19.254;2023-03-14T01:19:43;4.72;;;2.13;;
74620;SDS011;64861;47.546;19.254;2023-03-14T01:22:09;5.10;;;1.95;;
74620;SDS011;64861;47.546;19.254;2023-03-14T01:24:36;3.83;;;1.95;;
74620;SDS011;64861;47.546;19.254;2023-03-14T01:27:02;4.75;;;2.05;;
74620;SDS011;64861;47.546;19.254;2023-03-14T01:29:27;5.20;;;2.00;;
74620;SDS011;64861;47.546;19.254;2023-03-14T01:31:54;6.53;;;2.38;;
74620;SDS011;64861;47.546;19.254;2023-03-14T01:34:20;4.82;;;2.10;;
74620;SDS011;64861;47.546;19.254;2023-03-14T01:36:45;4.68;;;1.90;;
74620;SDS011;64861;47.546;19.254;2023-03-14T01:39:11;4.10;;;1.90;;
74620;SDS011;64861;47.546;19.254;2023-03-14T01:41:38;5.20;;;2.20;;
74620;SDS011;64861;47.546;19.254;2023-03-14T01:44:04;4.03;;;1.90;;
74620;SDS011;64861;47.546;19.254;2023-03-14T01:56:43;5.00;;;2.05;;
74620;SDS011;64861;47.546;19.254;2023-03-14T01:59:11;5.95;;;2.35;;
74620;SDS011;64861;47.546;19.254;2023-03-14T02:01:37;4.75;;;2.10;;
74620;SDS011;64861;47.546;19.254;2023-03-14T02:04:06;4.22;;;2.03;;
74620;SDS011;64861;47.546;19.254;2023-03-14T02:06:35;5.00;;;1.92;;
74620;SDS011;64861;47.546;19.254;2023-03-14T02:09:09;4.30;;;2.13;;
74620;SDS011;64861;47.546;19.254;2023-03-14T02:11:34;4.38;;;1.95;;
74620;SDS011;64861;47.546;19.254;2023-03-14T02:13:59;5.03;;;2.10;;
74620;SDS011;64861;47.546;19.254;2023-03-14T02:16:27;5.95;;;2.22;;
74620;SDS011;64861;47.546;19.254;2023-03-14T02:18:52;4.55;;;2.20;;
74620;SDS011;64861;47.546;19.254;2023-03-14T02:21:20;6.57;;;2.35;;
74620;SDS011;64861;47.546;19.254;2023-03-14T02:27:00;4.53;;;1.95;;
74620;SDS011;64861;47.546;19.254;2023-03-14T02:29:26;7.72;;;2.08;;
74620;SDS011;64861;47.546;19.254;2023-03-14T02:31:53;3.97;;;1.90;;
74620;SDS011;64861;47.546;19.254;2023-03-14T02:34:18;4.40;;;2.13;;
74620;SDS011;64861;47.546;19.254;2023-03-14T02:36:44;4.85;;;2.08;;
74620;SDS011;64861;47.546;19.254;2023-03-14T02:39:35;5.18;;;2.35;;
74620;SDS011;64861;47.546;19.254;2023-03-14T02:42:04;3.72;;;1.88;;
74620;SDS011;64861;47.546;19.254;2023-03-14T02:44:30;4.70;;;2.03;;
74620;SDS011;64861;47.546;19.254;2023-03-14T02:46:55;4.90;;;2.25;;
74620;SDS011;64861;47.546;19.254;2023-03-14T02:49:21;4.60;;;2.30;;
74620;SDS011;64861;47.546;19.254;2023-03-14T02:51:46;4.65;;;2.17;;
74620;SDS011;64861;47.546;19.254;2023-03-14T02:54:13;4.47;;;2.10;;
74620;SDS011;64861;47.546;19.254;2023-03-14T02:56:40;5.40;;;1.98;;
74620;SDS011;64861;47.546;19.254;2023-03-14T02:59:05;5.68;;;2.45;;
74620;SDS011;64861;47.546;19.254;2023-03-14T03:01:32;4.90;;;2.28;;
74620;SDS011;64861;47.546;19.254;2023-03-14T03:03:58;4.90;;;2.30;;
74620;SDS011;64861;47.546;19.254;2023-03-14T03:06:23;5.15;;;2.22;;
74620;SDS011;64861;47.546;19.254;2023-03-14T03:08:49;5.30;;;2.30;;
74620;SDS011;64861;47.546;19.254;2023-03-14T03:11:14;4.57;;;2.03;;
74620;SDS011;64861;47.546;19.254;2023-03-14T03:13:40;4.85;;;2.20;;
74620;SDS011;64861;47.546;19.254;2023-03-14T03:16:06;4.20;;;1.98;;
74620;SDS011;64861;47.546;19.254;2023-03-14T03:18:31;5.32;;;1.88;;
74620;SDS011;64861;47.546;19.254;2023-03-14T03:21:00;4.43;;;1.98;;
74620;SDS011;64861;47.546;19.254;2023-03-14T03:23:27;5.25;;;2.50;;
74620;SDS011;64861;47.546;19.254;2023-03-14T03:25:53;4.78;;;2.00;;
74620;SDS011;64861;47.546;19.254;2023-03-14T03:28:19;5.07;;;2.22;;
74620;SDS011;64861;47.546;19.254;2023-03-14T03:30:44;5.47;;;2.17;;
74620;SDS011;64861;47.546;19.254;2023-03-14T03:33:10;5.10;;;2.30;;
74620;SDS011;64861;47.546;19.254;2023-03-14T03:35:43;6.03;;;2.08;;
74620;SDS011;64861;47.546;19.254;2023-03-14T03:38:18;4.28;;;1.80;;
74620;SDS011;64861;47.546;19.254;2023-03-14T03:40:45;5.53;;;2.40;;
74620;SDS011;64861;47.546;19.254;2023-03-14T03:43:10;5.43;;;2.20;;
74620;SDS011;64861;47.546;19.254;2023-03-14T03:45:36;4.40;;;1.98;;
74620;SDS011;64861;47.546;19.254;2023-03-14T03:48:01;4.13;;;1.90;;
74620;SDS011;64861;47.546;19.254;2023-03-14T03:50:27;3.80;;;1.90;;
74620;SDS011;64861;47.546;19.254;2023-03-14T03:52:52;4.90;;;2.03;;
74620;SDS011;64861;47.546;19.254;2023-03-14T03:55:18;4.63;;;2.10;;
74620;SDS011;64861;47.546;19.254;2023-03-14T03:57:43;4.15;;;2.10;;
74620;SDS011;64861;47.546;19.254;2023-03-14T04:00:09;4.82;;;2.10;;
74620;SDS011;64861;47.546;19.254;2023-03-14T04:02:37;3.92;;;2.00;;
74620;SDS011;64861;47.546;19.254;2023-03-14T04:05:03;6.35;;;2.10;;
74620;SDS011;64861;47.546;19.254;2023-03-14T04:07:30;5.35;;;2.30;;
74620;SDS011;64861;47.546;19.254;2023-03-14T04:09:57;4.03;;;2.03;;
74620;SDS011;64861;47.546;19.254;2023-03-14T04:12:23;4.72;;;2.20;;
74620;SDS011;64861;47.546;19.254;2023-03-14T04:14:48;6.40;;;2.30;;
74620;SDS011;64861;47.546;19.254;2023-03-14T04:17:13;5.15;;;2.15;;
74620;SDS011;64861;47.546;19.254;2023-03-14T04:19:39;4.50;;;2.25;;
74620;SDS011;64861;47.546;19.254;2023-03-14T04:22:04;5.00;;;2.20;;
74620;SDS011;64861;47.546;19.254;2023-03-14T04:24:30;5.47;;;2.42;;
74620;SDS011;64861;47.546;19.254;2023-03-14T04:26:55;5.20;;;2.17;;
74620;SDS011;64861;47.546;19.254;2023-03-14T04:29:21;6.13;;;2.30;;
74620;SDS011;64861;47.546;19.254;2023-03-14T04:31:46;5.72;;;2.38;;
74620;SDS011;64861;47.546;19.254;2023-03-14T04:34:12;4.88;;;2.28;;
74620;SDS011;64861;47.546;19.254;2023-03-14T04:36:37;5.15;;;2.20;;
74620;SDS011;64861;47.546;19.254;2023-03-14T04:39:03;32.15;;;2.60;;
74620;SDS011;64861;47.546;19.254;2023-03-14T04:41:29;9.30;;;2.17;;
74620;SDS011;64861;47.546;19.254;2023-03-14T04:43:54;5.80;;;2.22;;
74620;SDS011;64861;47.546;19.254;2023-03-14T04:46:20;7.95;;;2.47;;
74620;SDS011;64861;47.546;19.254;2023-03-14T04:48:46;7.53;;;2.63;;
74620;SDS011;64861;47.546;19.254;2023-03-14T04:51:11;6.15;;;2.40;;
74620;SDS011;64861;47.546;19.254;2023-03-14T04:53:37;5.28;;;2.22;;
74620;SDS011;64861;47.546;19.254;2023-03-14T04:56:02;6.65;;;2.65;;
74620;SDS011;64861;47.546;19.254;2023-03-14T04:58:28;6.75;;;2.60;;
74620;SDS011;64861;47.546;19.254;2023-03-14T05:00:53;5.38;;;2.15;;
74620;SDS011;64861;47.546;19.254;2023-03-14T05:03:19;6.70;;;2.40;;
74620;SDS011;64861;47.546;19.254;2023-03-14T05:05:45;6.30;;;2.60;;
74620;SDS011;64861;47.546;19.254;2023-03-14T05:08:10;6.18;;;2.60;;
74620;SDS011;64861;47.546;19.254;2023-03-14T05:10:36;6.97;;;2.50;;
74620;SDS011;64861;47.546;19.254;2023-03-14T05:13:02;5.32;;;2.50;;
74620;SDS011;64861;47.546;19.254;2023-03-14T05:15:28;13.88;;;2.92;;
74620;SDS011;64861;47.546;19.254;2023-03-14T05:17:53;6.75;;;2.30;;
74620;SDS011;64861;47.546;19.254;2023-03-14T05:20:19;8.30;;;2.35;;
74620;SDS011;64861;47.546;19.254;2023-03-14T05:22:45;8.70;;;2.30;;
74620;SDS011;64861;47.546;19.254;2023-03-14T05:25:11;13.10;;;2.58;;
74620;SDS011;64861;47.546;19.254;2023-03-14T05:27:36;8.15;;;2.03;;
74620;SDS011;64861;47.546;19.254;2023-03-14T05:30:03;8.23;;;1.83;;
74620;SDS011;64861;47.546;19.254;2023-03-14T05:32:29;10.25;;;2.03;;
74620;SDS011;64861;47.546;19.254;2023-03-14T05:34:55;9.25;;;2.00;;
74620;SDS011;64861;47.546;19.254;2023-03-14T05:37:24;9.13;;;2.13;;
74620;SDS011;64861;47.546;19.254;2023-03-14T05:39:52;12.95;;;2.33;;
74620;SDS011;64861;47.546;19.254;2023-03-14T05:42:17;5.35;;;1.80;;
74620;SDS011;64861;47.546;19.254;2023-03-14T05:44:43;6.57;;;1.90;;
74620;SDS011;64861;47.546;19.254;2023-03-14T05:47:08;8.88;;;2.33;;
74620;SDS011;64861;47.546;19.254;2023-03-14T05:49:34;6.65;;;2.20;;
74620;SDS011;64861;47.546;19.254;2023-03-14T05:51:59;9.93;;;1.92;;
74620;SDS011;64861;47.546;19.254;2023-03-14T05:54:25;7.07;;;2.10;;
74620;SDS011;64861;47.546;19.254;2023-03-14T05:56:50;7.55;;;1.95;;
74620;SDS011;64861;47.546;19.254;2023-03-14T05:59:15;4.32;;;2.08;;
74620;SDS011;64861;47.546;19.254;2023-03-14T06:01:41;6.15;;;2.20;;
74620;SDS011;64861;47.546;19.254;2023-03-14T06:04:06;14.05;;;2.35;;
74620;SDS011;64861;47.546;19.254;2023-03-14T06:06:32;8.23;;;2.20;;
74620;SDS011;64861;47.546;19.254;2023-03-14T06:08:57;7.50;;;1.92;;
74620;SDS011;64861;47.546;19.254;2023-03-14T06:11:23;14.65;;;2.38;;
74620;SDS011;64861;47.546;19.254;2023-03-14T06:13:48;7.82;;;2.38;;
74620;SDS011;64861;47.546;19.254;2023-03-14T06:16:13;13.35;;;2.45;;
74620;SDS011;64861;47.546;19.254;2023-03-14T06:18:39;6.43;;;2.30;;
74620;SDS011;64861;47.546;19.254;2023-03-14T06:21:05;7.65;;;2.30;;
74620;SDS011;64861;47.546;19.254;2023-03-14T06:23:30;7.47;;;2.10;;
74620;SDS011;64861;47.546;19.254;2023-03-14T06:25:56;9.60;;;2.30;;
74620;SDS011;64861;47.546;19.254;2023-03-14T06:28:22;6.95;;;1.90;;
74620;SDS011;64861;47.546;19.254;2023-03-14T06:30:47;7.82;;;2.30;;
74620;SDS011;64861;47.546;19.254;2023-03-14T06:33:13;8.98;;;2.38;;
74620;SDS011;64861;47.546;19.254;2023-03-14T06:35:38;11.30;;;2.60;;
74620;SDS011;64861;47.546;19.254;2023-03-14T06:38:04;11.30;;;2.05;;
74620;SDS011;64861;47.546;19.254;2023-03-14T06:40:29;8.55;;;2.33;;
74620;SDS011;64861;47.546;19.254;2023-03-14T06:42:55;10.57;;;2.50;;
74620;SDS011;64861;47.546;19.254;2023-03-14T06:45:20;18.33;;;2.30;;
74620;SDS011;64861;47.546;19.254;2023-03-14T06:47:46;7.80;;;2.38;;
74620;SDS011;64861;47.546;19.254;2023-03-14T06:50:11;6.43;;;2.28;;
74620;SDS011;64861;47.546;19.254;2023-03-14T06:52:37;8.10;;;2.20;;
74620;SDS011;64861;47.546;19.254;2023-03-14T06:55:06;8.82;;;2.30;;
74620;SDS011;64861;47.546;19.254;2023-03-14T06:57:32;6.53;;;2.38;;
74620;SDS011;64861;47.546;19.254;2023-03-14T06:59:57;10.15;;;2.63;;
74620;SDS011;64861;47.546;19.254;2023-03-14T07:02:23;13.43;;;2.33;;
74620;SDS011;64861;47.546;19.254;2023-03-14T07:04:48;6.43;;;1.98;;
74620;SDS011;64861;47.546;19.254;2023-03-14T07:07:14;6.30;;;2.20;;
74620;SDS011;64861;47.546;19.254;2023-03-14T07:09:40;9.02;;;2.22;;
74620;SDS011;64861;47.546;19.254;2023-03-14T07:12:06;9.57;;;2.00;;
74620;SDS011;64861;47.546;19.254;2023-03-14T07:14:31;6.30;;;2.08;;
74620;SDS011;64861;47.546;19.254;2023-03-14T07:16:57;7.70;;;2.10;;
74620;SDS011;64861;47.546;19.254;2023-03-14T07:19:22;9.23;;;2.50;;
74620;SDS011;64861;47.546;19.254;2023-03-14T07:21:48;4.00;;;1.70;;
74620;SDS011;64861;47.546;19.254;2023-03-14T07:24:13;5.78;;;2.20;;
74620;SDS011;64861;47.546;19.254;2023-03-14T07:26:39;10.07;;;2.15;;
74620;SDS011;64861;47.546;19.254;2023-03-14T07:29:04;5.30;;;2.00;;
74620;SDS011;64861;47.546;19.254;2023-03-14T07:31:30;10.80;;;2.35;;
74620;SDS011;64861;47.546;19.254;2023-03-14T07:33:56;8.48;;;2.05;;
74620;SDS011;64861;47.546;19.254;2023-03-14T07:36:22;5.88;;;2.20;;
74620;SDS011;64861;47.546;19.254;2023-03-14T07:38:47;8.80;;;2.00;;
74620;SDS011;64861;47.546;19.254;2023-03-14T07:41:13;5.40;;;2.10;;
74620;SDS011;64861;47.546;19.254;2023-03-14T07:43:38;4.78;;;1.90;;
74620;SDS011;64861;47.546;19.254;2023-03-14T07:46:04;7.25;;;2.00;;
74620;SDS011;64861;47.546;19.254;2023-03-14T07:48:29;8.00;;;2.00;;
74620;SDS011;64861;47.546;19.254;2023-03-14T07:50:55;5.55;;;2.22;;
74620;SDS011;64861;47.546;19.254;2023-03-14T07:53:21;7.03;;;1.95;;
74620;SDS011;64861;47.546;19.254;2023-03-14T07:55:48;11.90;;;2.35;;
74620;SDS011;64861;47.546;19.254;2023-03-14T07:58:15;4.55;;;1.90;;
74620;SDS011;64861;47.546;19.254;2023-03-14T08:00:40;6.97;;;2.00;;
74620;SDS011;64861;47.546;19.254;2023-03-14T08:03:05;7.22;;;1.80;;
74620;SDS011;64861;47.546;19.254;2023-03-14T08:05:33;5.43;;;2.08;;
74620;SDS011;64861;47.546;19.254;2023-03-14T08:08:00;4.82;;;1.80;;
74620;SDS011;64861;47.546;19.254;2023-03-14T08:10:25;7.47;;;2.10;;
74620;SDS011;64861;47.546;19.254;2023-03-14T08:12:56;5.80;;;2.08;;
74620;SDS011;64861;47.546;19.254;2023-03-14T08:15:24;4.25;;;1.77;;
74620;SDS011;64861;47.546;19.254;2023-03-14T08:17:51;6.53;;;2.03;;
74620;SDS011;64861;47.546;19.254;2023-03-14T08:20:18;7.63;;;2.00;;
74620;SDS011;64861;47.546;19.254;2023-03-14T08:22:44;9.88;;;2.00;;
74620;SDS011;64861;47.546;19.254;2023-03-14T08:25:10;9.25;;;2.03;;
74620;SDS011;64861;47.546;19.254;2023-03-14T08:27:36;6.78;;;2.10;;
74620;SDS011;64861;47.546;19.254;2023-03-14T08:30:04;12.18;;;1.98;;
74620;SDS011;64861;47.546;19.254;2023-03-14T08:32:30;6.70;;;2.15;;
74620;SDS011;64861;47.546;19.254;2023-03-14T08:34:56;6.88;;;1.90;;
74620;SDS011;64861;47.546;19.254;2023-03-14T08:37:21;10.40;;;2.40;;
74620;SDS011;64861;47.546;19.254;2023-03-14T08:39:47;8.75;;;1.95;;
74620;SDS011;64861;47.546;19.254;2023-03-14T08:42:12;11.68;;;1.90;;
74620;SDS011;64861;47.546;19.254;2023-03-14T08:44:38;6.68;;;1.65;;
74620;SDS011;64861;47.546;19.254;2023-03-14T08:47:03;5.07;;;2.00;;
74620;SDS011;64861;47.546;19.254;2023-03-14T08:49:29;4.35;;;1.80;;
74620;SDS011;64861;47.546;19.254;2023-03-14T08:51:54;5.75;;;1.83;;
74620;SDS011;64861;47.546;19.254;2023-03-14T08:54:20;9.45;;;2.35;;
74620;SDS011;64861;47.546;19.254;2023-03-14T08:56:45;13.40;;;1.90;;
74620;SDS011;64861;47.546;19.254;2023-03-14T08:59:11;5.57;;;2.08;;
74620;SDS011;64861;47.546;19.254;2023-03-14T09:01:36;6.10;;;1.85;;
74620;SDS011;64861;47.546;19.254;2023-03-14T09:04:02;27.58;;;3.28;;
74620;SDS011;64861;47.546;19.254;2023-03-14T09:06:27;20.35;;;3.42;;
74620;SDS011;64861;47.546;19.254;2023-03-14T09:08:53;12.15;;;3.03;;
74620;SDS011;64861;47.546;19.254;2023-03-14T09:11:18;12.05;;;2.45;;
74620;SDS011;64861;47.546;19.254;2023-03-14T09:13:44;14.32;;;2.78;;
74620;SDS011;64861;47.546;19.254;2023-03-14T09:16:09;12.43;;;2.90;;
74620;SDS011;64861;47.546;19.254;2023-03-14T09:18:35;9.68;;;2.95;;
74620;SDS011;64861;47.546;19.254;2023-03-14T09:21:01;9.73;;;2.60;;
74620;SDS011;64861;47.546;19.254;2023-03-14T09:23:26;7.63;;;2.65;;
74620;SDS011;64861;47.546;19.254;2023-03-14T09:25:56;11.82;;;3.10;;
74620;SDS011;64861;47.546;19.254;2023-03-14T09:28:22;9.68;;;2.92;;
74620;SDS011;64861;47.546;19.254;2023-03-14T09:30:47;36.97;;;4.25;;
74620;SDS011;64861;47.546;19.254;2023-03-14T09:33:14;40.35;;;4.03;;
74620;SDS011;64861;47.546;19.254;2023-03-14T09:35:40;21.23;;;3.30;;
74620;SDS011;64861;47.546;19.254;2023-03-14T09:38:06;30.00;;;3.95;;
74620;SDS011;64861;47.546;19.254;2023-03-14T09:40:33;24.75;;;3.42;;
74620;SDS011;64861;47.546;19.254;2023-03-14T09:43:00;37.45;;;3.85;;
74620;SDS011;64861;47.546;19.254;2023-03-14T09:45:28;34.00;;;3.92;;
74620;SDS011;64861;47.546;19.254;2023-03-14T09:47:58;16.30;;;2.67;;
74620;SDS011;64861;47.546;19.254;2023-03-14T09:50:24;20.98;;;3.30;;
74620;SDS011;64861;47.546;19.254;2023-03-14T09:52:56;24.55;;;3.28;;
74620;SDS011;64861;47.546;19.254;2023-03-14T09:55:27;30.88;;;3.28;;
74620;SDS011;64861;47.546;19.254;2023-03-14T09:57:59;22.13;;;3.03;;
74620;SDS011;64861;47.546;19.254;2023-03-14T10:00:29;26.98;;;3.55;;
74620;SDS011;64861;47.546;19.254;2023-03-14T10:02:59;22.48;;;3.35;;
74620;SDS011;64861;47.546;19.254;2023-03-14T10:05:39;21.67;;;3.28;;
74620;SDS011;64861;47.546;19.254;2023-03-14T10:08:06;18.15;;;2.60;;
74620;SDS011;64861;47.546;19.254;2023-03-14T10:10:37;17.80;;;3.00;;
74620;SDS011;64861;47.546;19.254;2023-03-14T10:13:16;15.20;;;2.78;;
74620;SDS011;64861;47.546;19.254;2023-03-14T10:16:03;20.50;;;2.95;;
74620;SDS011;64861;47.546;19.254;2023-03-14T10:18:31;14.70;;;2.50;;
74620;SDS011;64861;47.546;19.254;2023-03-14T10:21:06;25.95;;;3.70;;
74620;SDS011;64861;47.546;19.254;2023-03-14T10:23:50;16.60;;;2.55;;
74620;SDS011;64861;47.546;19.254;2023-03-14T10:26:24;17.00;;;3.15;;
74620;SDS011;64861;47.546;19.254;2023-03-14T10:28:53;14.18;;;2.40;;
74620;SDS011;64861;47.546;19.254;2023-03-14T10:31:26;21.70;;;2.72;;
74620;SDS011;64861;47.546;19.254;2023-03-14T10:34:02;21.98;;;3.15;;
74620;SDS011;64861;47.546;19.254;2023-03-14T10:36:30;19.20;;;3.25;;
74620;SDS011;64861;47.546;19.254;2023-03-14T10:38:58;12.52;;;2.80;;
74620;SDS011;64861;47.546;19.254;2023-03-14T10:41:48;57.28;;;5.32;;
74620;SDS011;64861;47.546;19.254;2023-03-14T10:44:16;21.70;;;3.40;;
74620;SDS011;64861;47.546;19.254;2023-03-14T10:46:46;19.15;;;3.03;;
74620;SDS011;64861;47.546;19.254;2023-03-14T10:49:26;19.85;;;2.63;;
74620;SDS011;64861;47.546;19.254;2023-03-14T10:52:00;16.77;;;2.95;;
74620;SDS011;64861;47.546;19.254;2023-03-14T10:54:40;12.25;;;2.58;;
74620;SDS011;64861;47.546;19.254;2023-03-14T10:57:05;12.73;;;2.42;;
74620;SDS011;64861;47.546;19.254;2023-03-14T10:59:35;12.55;;;2.17;;
74620;SDS011;64861;47.546;19.254;2023-03-14T11:02:04;10.18;;;2.38;;
74620;SDS011;64861;47.546;19.254;2023-03-14T11:12:29;13.00;;;2.58;;
74620;SDS011;64861;47.546;19.254;2023-03-14T11:15:05;12.38;;;2.30;;
74620;SDS011;64861;47.546;19.254;2023-03-14T11:18:30;12.18;;;2.13;;
74620;SDS011;64861;47.546;19.254;2023-03-14T11:20:51;14.05;;;1.90;;
74620;SDS011;64861;47.546;19.254;2023-03-14T11:23:27;13.95;;;2.90;;
74620;SDS011;64861;47.546;19.254;2023-03-14T11:28:53;13.32;;;2.35;;
74620;SDS011;64861;47.546;19.254;2023-03-14T11:31:27;12.65;;;2.60;;
74620;SDS011;64861;47.546;19.254;2023-03-14T11:34:02;9.07;;;1.95;;
74620;SDS011;64861;47.546;19.254;2023-03-14T11:36:53;9.02;;;2.00;;
74620;SDS011;64861;47.546;19.254;2023-03-14T11:39:35;11.00;;;1.95;;
74620;SDS011;64861;47.546;19.254;2023-03-14T11:42:09;11.88;;;2.40;;
74620;SDS011;64861;47.546;19.254;2023-03-14T11:44:38;7.43;;;2.05;;
74620;SDS011;64861;47.546;19.254;2023-03-14T11:52:48;10.30;;;1.98;;
74620;SDS011;64861;47.546;19.254;2023-03-14T11:55:33;15.13;;;1.90;;
74620;SDS011;64861;47.546;19.254;2023-03-14T11:58:03;9.02;;;2.17;;
74620;SDS011;64861;47.546;19.254;2023-03-14T12:00:40;13.00;;;1.90;;
74620;SDS011;64861;47.546;19.254;2023-03-14T12:11:09;8.40;;;1.67;;
74620;SDS011;64861;47.546;19.254;2023-03-14T12:13:39;13.38;;;1.90;;
74620;SDS011;64861;47.546;19.254;2023-03-14T12:16:06;9.32;;;1.83;;
74620;SDS011;64861;47.546;19.254;2023-03-14T12:18:51;13.15;;;1.90;;
74620;SDS011;64861;47.546;19.254;2023-03-14T12:21:18;5.63;;;1.50;;
74620;SDS011;64861;47.546;19.254;2023-03-14T12:26:19;6.47;;;1.85;;
74620;SDS011;64861;47.546;19.254;2023-03-14T12:34:03;6.35;;;1.65;;
74620;SDS011;64861;47.546;19.254;2023-03-14T12:44:48;6.78;;;1.58;;
74620;SDS011;64861;47.546;19.254;2023-03-14T12:49:49;4.35;;;1.55;;
74620;SDS011;64861;47.546;19.254;2023-03-14T12:52:22;7.00;;;1.58;;
74620;SDS011;64861;47.546;19.254;2023-03-14T12:55:02;8.15;;;1.73;;
74620;SDS011;64861;47.546;19.254;2023-03-14T12:57:48;8.27;;;1.55;;
74620;SDS011;64861;47.546;19.254;2023-03-14T13:00:35;5.25;;;1.50;;
74620;SDS011;64861;47.546;19.254;2023-03-14T13:03:42;4.45;;;1.40;;
74620;SDS011;64861;47.546;19.254;2023-03-14T13:06:08;6.38;;;1.60;;
74620;SDS011;64861;47.546;19.254;2023-03-14T13:08:42;4.28;;;1.30;;
74620;SDS011;64861;47.546;19.254;2023-03-14T13:11:14;7.28;;;1.33;;
74620;SDS011;64861;47.546;19.254;2023-03-14T13:13:42;5.17;;;1.67;;
74620;SDS011;64861;47.546;19.254;2023-03-14T13:16:30;4.72;;;1.40;;
74620;SDS011;64861;47.546;19.254;2023-03-14T13:19:13;6.95;;;1.30;;
74620;SDS011;64861;47.546;19.254;2023-03-14T13:21:45;6.80;;;1.40;;
74620;SDS011;64861;47.546;19.254;2023-03-14T13:24:21;4.97;;;1.30;;
74620;SDS011;64861;47.546;19.254;2023-03-14T13:26:54;4.95;;;1.20;;
74620;SDS011;64861;47.546;19.254;2023-03-14T13:31:54;4.95;;;1.20;;
74620;SDS011;64861;47.546;19.254;2023-03-14T13:34:25;3.35;;;1.20;;
74620;SDS011;64861;47.546;19.254;2023-03-14T13:36:54;6.07;;;1.38;;
74620;SDS011;64861;47.546;19.254;2023-03-14T13:39:21;7.10;;;1.20;;
74620;SDS011;64861;47.546;19.254;2023-03-14T13:41:50;6.40;;;1.27;;
74620;SDS011;64861;47.546;19.254;2023-03-14T13:44:27;5.28;;;1.30;;
74620;SDS011;64861;47.546;19.254;2023-03-14T13:47:00;4.75;;;1.00;;
74620;SDS011;64861;47.546;19.254;2023-03-14T13:49:28;4.05;;;1.30;;
74620;SDS011;64861;47.546;19.254;2023-03-14T13:51:57;8.10;;;1.40;;
74620;SDS011;64861;47.546;19.254;2023-03-14T14:04:44;4.35;;;1.20;;
74620;SDS011;64861;47.546;19.254;2023-03-14T14:07:13;4.30;;;1.42;;
74620;SDS011;64861;47.546;19.254;2023-03-14T14:09:44;4.63;;;1.40;;
74620;SDS011;64861;47.546;19.254;2023-03-14T14:12:14;7.90;;;1.00;;
74620;SDS011;64861;47.546;19.254;2023-03-14T14:14:55;7.78;;;1.50;;
74620;SDS011;64861;47.546;19.254;2023-03-14T14:17:49;5.82;;;1.10;;
74620;SDS011;64861;47.546;19.254;2023-03-14T14:20:34;4.93;;;1.20;;
74620;SDS011;64861;47.546;19.254;2023-03-14T14:23:18;4.93;;;1.20;;
74620;SDS011;64861;47.546;19.254;2023-03-14T14:33:54;6.00;;;1.25;;
74620;SDS011;64861;47.546;19.254;2023-03-14T14:44:16;7.20;;;1.35;;
74620;SDS011;64861;47.546;19.254;2023-03-14T14:51:51;9.73;;;1.20;;
74620;SDS011;64861;47.546;19.254;2023-03-14T14:54:33;4.50;;;1.10;;
74620;SDS011;64861;47.546;19.254;2023-03-14T14:57:18;9.52;;;1.33;;
74620;SDS011;64861;47.546;19.254;2023-03-14T14:59:54;4.43;;;1.02;;
74620;SDS011;64861;47.546;19.254;2023-03-14T15:04:53;4.75;;;1.08;;
74620;SDS011;64861;47.546;19.254;2023-03-14T15:07:18;2.72;;;0.95;;
74620;SDS011;64861;47.546;19.254;2023-03-14T15:09:47;3.28;;;1.10;;
74620;SDS011;64861;47.546;19.254;2023-03-14T15:14:47;4.50;;;1.30;;
74620;SDS011;64861;47.546;19.254;2023-03-14T15:17:13;7.30;;;1.70;;
74620;SDS011;64861;47.546;19.254;2023-03-14T15:19:39;8.70;;;1.45;;
74620;SDS011;64861;47.546;19.254;2023-03-14T15:22:07;5.55;;;1.40;;
74620;SDS011;64861;47.546;19.254;2023-03-14T15:29:44;6.28;;;1.70;;
74620;SDS011;64861;47.546;19.254;2023-03-14T15:32:13;4.82;;;1.13;;
74620;SDS011;64861;47.546;19.254;2023-03-14T15:34:41;3.00;;;1.10;;
74620;SDS011;64861;47.546;19.254;2023-03-14T15:37:13;5.43;;;0.98;;
74620;SDS011;64861;47.546;19.254;2023-03-14T15:39:43;7.70;;;1.88;;
74620;SDS011;64861;47.546;19.254;2023-03-14T15:42:09;8.65;;;2.10;;
74620;SDS011;64861;47.546;19.254;2023-03-14T15:44:34;6.10;;;1.77;;
74620;SDS011;64861;47.546;19.254;2023-03-14T15:47:00;6.50;;;1.60;;
74620;SDS011;64861;47.546;19.254;2023-03-14T15:49:26;8.20;;;1.70;;
74620;SDS011;64861;47.546;19.254;2023-03-14T15:51:52;7.50;;;1.60;;
74620;SDS011;64861;47.546;19.254;2023-03-14T15:54:18;5.35;;;1.27;;
74620;SDS011;64861;47.546;19.254;2023-03-14T15:56:44;9.45;;;1.60;;
74620;SDS011;64861;47.546;19.254;2023-03-14T15:59:09;8.73;;;1.40;;
74620;SDS011;64861;47.546;19.254;2023-03-14T16:01:35;6.57;;;1.40;;
74620;SDS011;64861;47.546;19.254;2023-03-14T16:04:00;6.03;;;1.30;;
74620;SDS011;64861;47.546;19.254;2023-03-14T16:06:27;4.32;;;1.30;;
74620;SDS011;64861;47.546;19.254;2023-03-14T16:08:52;4.15;;;1.30;;
74620;SDS011;64861;47.546;19.254;2023-03-14T16:11:18;4.60;;;1.20;;
74620;SDS011;64861;47.546;19.254;2023-03-14T16:16:20;2.75;;;1.00;;
74620;SDS011;64861;47.546;19.254;2023-03-14T16:21:21;3.65;;;1.00;;
74620;SDS011;64861;47.546;19.254;2023-03-14T16:23:47;20.25;;;1.55;;